Time;durP1;ratioP1;P1;durP2;ratioP2;P2;SDS_P1;SDS_P2;PMS_P1;PMS_P2;Temp;Humidity;BMP_temperature;BMP_pressure;BME280_temperature;BME280_humidity;BME280_pressure;Samples;Min_cycle;Max_cycle;Signal;HPM_P1;HPM_P2
2022/03/11 00:01:03;;;;;;;15.88;7.03;;;5.20;99.90;;;;;;5065496;28;20116;-68
2022/03/11 00:03:29;;;;;;;13.60;7.15;;;5.20;99.90;;;;;;5030849;28;20094;-68
2022/03/11 00:05:55;;;;;;;12.73;7.32;;;5.30;99.90;;;;;;5064916;28;20041;-68
2022/03/11 00:08:21;;;;;;;15.38;8.15;;;5.20;99.90;;;;;;5047383;28;20385;-69
2022/03/11 00:10:47;;;;;;;15.48;7.72;;;5.20;99.90;;;;;;5045375;28;20346;-70
2022/03/11 00:13:13;;;;;;;17.13;8.73;;;5.20;99.90;;;;;;5043920;28;20140;-70
2022/03/11 00:15:39;;;;;;;17.40;8.70;;;5.20;99.90;;;;;;5046444;28;20429;-69
2022/03/11 00:18:05;;;;;;;15.35;8.15;;;5.20;99.90;;;;;;5031350;28;20535;-70
2022/03/11 00:20:32;;;;;;;15.32;8.05;;;5.20;99.90;;;;;;5045807;28;20390;-70
2022/03/11 00:22:58;;;;;;;15.10;8.20;;;5.10;99.90;;;;;;5033798;28;20043;-69
2022/03/11 00:25:24;;;;;;;17.60;8.10;;;5.10;99.90;;;;;;5030819;28;20685;-69
2022/03/11 00:27:53;;;;;;;17.77;9.00;;;4.50;99.90;;;;;;5048006;28;20204;-69
2022/03/11 00:30:19;;;;;;;17.73;8.65;;;5.10;99.90;;;;;;5065517;28;20041;-69
2022/03/11 00:32:45;;;;;;;16.58;9.00;;;5.00;99.90;;;;;;5030054;28;20055;-69
2022/03/11 00:35:12;;;;;;;17.48;9.05;;;5.00;99.90;;;;;;5051666;28;20085;-68
2022/03/11 00:37:39;;;;;;;16.60;8.63;;;5.00;99.90;;;;;;5074332;28;20040;-69
2022/03/11 00:40:06;;;;;;;18.35;9.55;;;5.00;99.90;;;;;;5036999;28;20047;-70
2022/03/11 00:42:32;;;;;;;20.05;10.00;;;5.00;99.90;;;;;;5031371;28;20515;-70
2022/03/11 00:44:58;;;;;;;20.00;9.75;;;4.90;99.90;;;;;;5065225;28;20037;-69
2022/03/11 00:47:23;;;;;;;21.33;9.65;;;4.80;99.90;;;;;;5027906;28;20167;-70
2022/03/11 00:49:49;;;;;;;19.40;9.30;;;4.80;99.90;;;;;;5030831;28;20123;-69
2022/03/11 00:52:15;;;;;;;18.83;9.63;;;4.80;99.90;;;;;;5050513;28;20469;-69
2022/03/11 00:54:41;;;;;;;21.55;10.15;;;4.80;99.90;;;;;;5031192;28;20067;-69
2022/03/11 00:57:07;;;;;;;20.10;10.20;;;4.70;99.90;;;;;;5029435;28;20124;-68
2022/03/11 00:59:33;;;;;;;20.15;10.48;;;4.80;99.90;;;;;;5045006;28;20105;-68
2022/03/11 01:01:59;;;;;;;19.55;10.00;;;4.70;99.90;;;;;;5063847;28;20080;-70
2022/03/11 01:04:25;;;;;;;20.58;10.13;;;4.70;99.90;;;;;;5047291;28;20056;-69
2022/03/11 01:06:51;;;;;;;22.90;11.25;;;4.80;99.90;;;;;;5062030;28;20454;-69
2022/03/11 01:09:17;;;;;;;19.83;10.60;;;4.70;99.90;;;;;;5049413;28;20048;-69
2022/03/11 01:11:43;;;;;;;21.98;11.05;;;4.70;99.90;;;;;;5046471;28;20198;-69
2022/03/11 01:14:08;;;;;;;22.60;11.10;;;4.70;99.90;;;;;;5062444;28;20102;-69
2022/03/11 01:16:34;;;;;;;20.75;11.10;;;4.70;99.90;;;;;;5046388;28;20055;-69
2022/03/11 01:19:01;;;;;;;24.73;11.57;;;4.60;99.90;;;;;;5066878;28;20044;-70
2022/03/11 01:21:27;;;;;;;23.15;11.90;;;4.60;99.90;;;;;;5032257;28;20486;-69
2022/03/11 01:23:55;;;;;;;23.65;12.13;;;4.60;99.90;;;;;;5065777;28;20200;-68
2022/03/11 01:26:21;;;;;;;23.90;11.98;;;4.60;99.90;;;;;;5049028;28;20115;-69
2022/03/11 01:28:49;;;;;;;26.13;12.50;;;4.60;99.90;;;;;;5048422;28;20083;-69
2022/03/11 01:31:17;;;;;;;23.65;11.65;;;4.60;99.90;;;;;;5063792;28;20045;-69
2022/03/11 01:33:44;;;;;;;27.73;13.10;;;4.60;99.90;;;;;;5065444;28;20461;-69
2022/03/11 01:36:12;;;;;;;26.48;12.45;;;4.60;99.90;;;;;;5031955;28;20037;-69
2022/03/11 01:38:38;;;;;;;25.15;12.73;;;4.60;99.90;;;;;;5048024;28;20049;-68
2022/03/11 01:41:05;;;;;;;29.40;13.90;;;4.60;99.90;;;;;;5049305;28;20101;-71
2022/03/11 01:43:53;;;;;;;29.77;14.07;;;4.60;99.90;;;;;;5067960;28;20380;-69
2022/03/11 01:46:19;;;;;;;29.65;12.93;;;4.60;99.90;;;;;;5035570;28;20045;-68
2022/03/11 01:48:45;;;;;;;29.05;13.75;;;4.60;99.90;;;;;;5052129;28;20033;-69
2022/03/11 01:51:11;;;;;;;29.35;13.70;;;4.50;99.90;;;;;;5034481;28;20041;-69
2022/03/11 01:53:37;;;;;;;30.05;14.98;;;4.50;99.90;;;;;;5069272;28;20037;-69
2022/03/11 01:56:05;;;;;;;27.40;14.18;;;4.50;99.90;;;;;;5032238;28;20053;-70
2022/03/11 01:58:32;;;;;;;32.33;14.50;;;4.50;99.90;;;;;;5046702;28;20088;-70
2022/03/11 02:00:58;;;;;;;28.15;15.05;;;4.40;99.90;;;;;;5052452;28;20040;-70
2022/03/11 02:03:24;;;;;;;28.75;13.98;;;4.40;99.90;;;;;;5018252;28;20067;-70
2022/03/11 02:05:50;;;;;;;30.05;15.25;;;4.30;99.90;;;;;;5070100;28;20123;-69
2022/03/11 02:08:16;;;;;;;31.33;14.63;;;4.30;99.90;;;;;;5012665;28;20041;-70
2022/03/11 02:10:42;;;;;;;28.00;14.00;;;4.40;99.90;;;;;;5016772;28;20049;-69
2022/03/11 02:13:08;;;;;;;29.85;15.65;;;4.30;99.90;;;;;;5009129;28;20037;-69
2022/03/11 02:15:33;;;;;;;29.20;14.85;;;4.30;99.90;;;;;;5062217;28;20131;-69
2022/03/11 02:17:59;;;;;;;29.70;13.95;;;4.30;99.90;;;;;;5030761;28;20098;-69
2022/03/11 02:20:25;;;;;;;31.83;14.80;;;4.30;99.90;;;;;;5051100;28;20045;-69
2022/03/11 02:22:52;;;;;;;29.55;14.63;;;4.30;99.90;;;;;;5051572;28;20060;-68
2022/03/11 02:25:18;;;;;;;30.98;15.18;;;4.30;99.90;;;;;;5048215;28;20045;-69
2022/03/11 02:27:46;;;;;;;30.23;14.45;;;4.30;99.90;;;;;;5066689;28;20155;-70
2022/03/11 02:30:20;;;;;;;35.08;15.30;;;4.30;99.90;;;;;;5052508;28;20041;-69
2022/03/11 02:32:47;;;;;;;32.22;16.10;;;4.30;99.90;;;;;;5024393;28;20049;-69
2022/03/11 02:35:14;;;;;;;32.30;14.35;;;4.20;99.90;;;;;;5028920;28;20045;-69
2022/03/11 02:37:40;;;;;;;33.30;15.13;;;4.10;99.90;;;;;;5065556;28;20523;-68
2022/03/11 02:40:07;;;;;;;33.50;16.13;;;4.10;99.90;;;;;;5033660;28;20144;-69
2022/03/11 02:42:33;;;;;;;33.65;16.98;;;4.10;99.90;;;;;;5051614;28;20527;-69
2022/03/11 02:45:03;;;;;;;30.63;15.13;;;4.00;99.90;;;;;;5032684;28;20101;-69
2022/03/11 02:47:30;;;;;;;30.85;14.95;;;4.10;99.90;;;;;;5049786;28;20120;-69
2022/03/11 02:49:55;;;;;;;29.52;15.55;;;4.00;99.90;;;;;;5030517;28;20048;-70
2022/03/11 02:52:21;;;;;;;31.00;15.73;;;4.00;99.90;;;;;;5051075;28;20103;-69
2022/03/11 02:54:48;;;;;;;30.63;15.60;;;4.00;99.90;;;;;;5037623;28;20037;-69
2022/03/11 02:57:17;;;;;;;33.72;16.52;;;4.00;99.90;;;;;;5046427;28;20396;-70
2022/03/11 02:59:44;;;;;;;31.33;15.18;;;4.00;99.90;;;;;;5029430;28;20044;-69
2022/03/11 03:02:10;;;;;;;29.30;15.27;;;3.90;99.90;;;;;;5017468;28;20544;-69
2022/03/11 03:04:36;;;;;;;32.85;15.05;;;4.00;99.90;;;;;;5048526;28;20041;-69
2022/03/11 03:07:03;;;;;;;33.03;15.50;;;3.90;99.90;;;;;;5051313;28;20374;-69
2022/03/11 03:09:28;;;;;;;30.65;16.13;;;3.90;99.90;;;;;;5051493;28;20049;-70
2022/03/11 03:11:54;;;;;;;32.30;16.20;;;3.80;99.90;;;;;;5052309;28;20049;-69
2022/03/11 03:14:21;;;;;;;32.78;16.15;;;3.90;99.90;;;;;;5034884;28;20045;-69
2022/03/11 03:16:47;;;;;;;35.00;15.50;;;3.90;99.90;;;;;;5048868;28;20064;-69
2022/03/11 03:19:13;;;;;;;31.70;16.13;;;3.80;99.90;;;;;;5049068;28;20084;-69
2022/03/11 03:21:39;;;;;;;32.50;15.98;;;3.80;99.90;;;;;;5051104;28;20033;-68
2022/03/11 03:24:06;;;;;;;32.58;16.25;;;3.80;99.90;;;;;;5058417;28;20134;-69
2022/03/11 03:26:32;;;;;;;33.30;15.75;;;3.70;99.90;;;;;;5073311;28;20067;-69
2022/03/11 03:28:58;;;;;;;34.38;16.45;;;3.70;99.90;;;;;;5047543;28;20045;-69
2022/03/11 03:31:24;;;;;;;36.38;15.70;;;3.60;99.90;;;;;;5042824;28;20386;-69
2022/03/11 03:33:50;;;;;;;33.30;14.93;;;3.60;99.90;;;;;;5026855;28;20044;-69
2022/03/11 03:36:16;;;;;;;31.88;15.45;;;3.60;99.90;;;;;;5034451;28;20078;-69
2022/03/11 03:38:42;;;;;;;37.58;16.48;;;3.60;99.90;;;;;;5032684;28;20045;-68
2022/03/11 03:41:08;;;;;;;34.10;16.08;;;3.50;99.90;;;;;;5015624;28;20045;-69
2022/03/11 03:43:34;;;;;;;32.05;16.05;;;3.50;99.90;;;;;;5048719;28;20044;-70
2022/03/11 03:46:00;;;;;;;33.05;15.73;;;2.80;99.90;;;;;;5034652;28;20052;-68
2022/03/11 03:48:26;;;;;;;31.45;15.13;;;3.30;99.90;;;;;;5050011;28;20045;-68
2022/03/11 03:50:52;;;;;;;31.95;14.55;;;3.40;99.90;;;;;;5050811;28;20044;-69
2022/03/11 03:53:18;;;;;;;33.08;15.93;;;3.30;99.90;;;;;;5065503;28;20037;-68
2022/03/11 03:55:44;;;;;;;31.10;16.55;;;3.30;99.90;;;;;;5067511;28;20044;-70
2022/03/11 03:58:10;;;;;;;33.30;16.35;;;3.30;99.90;;;;;;5050702;28;20509;-69
2022/03/11 04:00:36;;;;;;;33.83;15.80;;;3.30;99.90;;;;;;5018019;28;20132;-68
2022/03/11 04:03:02;;;;;;;32.80;16.88;;;3.20;99.90;;;;;;5050139;28;20068;-69
2022/03/11 04:05:27;;;;;;;33.65;15.73;;;3.20;99.90;;;;;;5067529;28;20044;-69
2022/03/11 04:07:53;;;;;;;31.27;14.40;;;3.20;99.90;;;;;;5050679;28;20052;-69
2022/03/11 04:10:20;;;;;;;36.45;16.25;;;3.20;99.90;;;;;;5050493;28;20045;-69
2022/03/11 04:12:46;;;;;;;34.22;14.77;;;3.10;99.90;;;;;;5033460;28;20144;-69
2022/03/11 04:15:12;;;;;;;30.45;15.52;;;3.10;99.90;;;;;;5032509;28;20477;-68
2022/03/11 04:17:38;;;;;;;33.55;15.60;;;3.10;99.90;;;;;;5049130;28;20469;-69
2022/03/11 04:20:05;;;;;;;30.33;14.57;;;3.10;99.90;;;;;;5033109;28;20049;-71
2022/03/11 04:22:31;;;;;;;33.83;15.75;;;3.10;99.90;;;;;;5050355;28;20048;-70
2022/03/11 04:24:57;;;;;;;32.47;14.73;;;3.10;99.90;;;;;;5017049;28;20388;-69
2022/03/11 04:27:23;;;;;;;37.08;15.82;;;3.10;99.90;;;;;;5050871;28;20508;-69
2022/03/11 04:29:49;;;;;;;32.38;15.68;;;3.00;99.90;;;;;;5032930;28;20033;-69
2022/03/11 04:32:15;;;;;;;31.63;16.55;;;2.90;99.90;;;;;;5046720;28;20128;-69
2022/03/11 04:34:41;;;;;;;30.63;15.07;;;2.90;99.90;;;;;;5032426;28;20052;-70
2022/03/11 04:37:07;;;;;;;34.75;16.67;;;2.80;99.90;;;;;;5034232;28;20040;-68
2022/03/11 04:39:33;;;;;;;35.72;16.00;;;3.70;99.90;;;;;;5048050;28;20048;-71
2022/03/11 04:41:59;;;;;;;34.28;15.90;;;2.80;99.90;;;;;;5034047;28;20412;-69
2022/03/11 04:44:25;;;;;;;34.33;15.82;;;2.80;99.90;;;;;;5050525;28;20056;-69
2022/03/11 04:46:51;;;;;;;31.67;15.77;;;2.70;99.90;;;;;;5050583;28;20128;-69
2022/03/11 04:49:17;;;;;;;33.00;14.52;;;2.70;99.90;;;;;;5028691;28;20045;-68
2022/03/11 04:51:43;;;;;;;32.97;16.48;;;2.70;99.90;;;;;;5025687;28;20044;-68
2022/03/11 04:54:09;;;;;;;29.40;15.25;;;2.70;99.90;;;;;;5066990;28;20443;-69
2022/03/11 04:56:37;;;;;;;32.83;15.65;;;2.70;99.90;;;;;;5050060;28;20071;-71
2022/03/11 04:59:03;;;;;;;33.75;15.82;;;2.70;99.90;;;;;;5049683;28;20497;-69
2022/03/11 05:01:29;;;;;;;32.92;16.08;;;2.70;99.90;;;;;;5030507;28;20041;-69
2022/03/11 05:03:55;;;;;;;29.63;15.02;;;2.60;99.90;;;;;;5049872;28;20083;-69
2022/03/11 05:06:21;;;;;;;30.23;14.52;;;2.70;99.90;;;;;;5033894;28;20083;-69
2022/03/11 05:08:47;;;;;;;31.50;16.05;;;2.60;99.90;;;;;;5057065;28;20054;-70
2022/03/11 05:11:13;;;;;;;33.30;15.32;;;2.60;99.90;;;;;;5064166;28;20034;-70
2022/03/11 05:13:39;;;;;;;37.15;15.80;;;2.50;99.90;;;;;;5041963;28;20048;-69
2022/03/11 05:16:05;;;;;;;36.25;15.85;;;2.60;99.90;;;;;;5067024;28;20040;-69
2022/03/11 05:18:31;;;;;;;33.22;15.45;;;2.50;99.90;;;;;;5033780;28;20048;-69
2022/03/11 05:20:58;;;;;;;33.40;15.98;;;2.50;99.90;;;;;;5071012;28;20124;-70
2022/03/11 05:23:24;;;;;;;36.38;15.95;;;2.50;99.90;;;;;;5049960;28;20127;-69
2022/03/11 05:25:51;;;;;;;34.95;16.08;;;2.50;99.90;;;;;;5070918;28;20114;-69
2022/03/11 05:28:17;;;;;;;33.17;15.05;;;3.30;99.90;;;;;;5036407;28;20045;-69
2022/03/11 05:30:43;;;;;;;33.47;14.23;;;2.40;99.90;;;;;;5037120;28;20366;-69
2022/03/11 05:33:09;;;;;;;35.22;16.23;;;2.40;99.90;;;;;;5043366;28;20044;-69
2022/03/11 05:35:35;;;;;;;33.28;15.55;;;2.40;99.90;;;;;;5053722;28;20044;-71
2022/03/11 05:38:01;;;;;;;33.90;15.68;;;2.40;99.90;;;;;;5044745;28;20033;-69
2022/03/11 05:40:27;;;;;;;32.00;14.80;;;2.30;99.90;;;;;;5053807;28;20350;-69
2022/03/11 05:42:53;;;;;;;33.45;14.85;;;2.30;99.90;;;;;;5034663;28;20040;-70
2022/03/11 05:45:19;;;;;;;32.95;15.18;;;2.40;99.90;;;;;;5035953;28;20037;-69
2022/03/11 05:47:45;;;;;;;33.45;15.65;;;2.30;99.90;;;;;;5053128;28;20041;-69
2022/03/11 05:50:11;;;;;;;34.40;15.57;;;2.30;99.90;;;;;;5069087;28;20044;-70
2022/03/11 05:52:39;;;;;;;31.02;15.02;;;2.30;99.90;;;;;;5034662;28;20056;-70
2022/03/11 05:55:06;;;;;;;35.92;15.60;;;2.30;99.90;;;;;;5025185;28;20053;-70
2022/03/11 05:57:32;;;;;;;31.75;15.80;;;2.30;99.90;;;;;;5069988;28;20086;-70
2022/03/11 05:59:58;;;;;;;33.05;13.73;;;2.20;99.90;;;;;;5069164;28;20041;-69
2022/03/11 06:02:24;;;;;;;32.97;15.00;;;2.30;99.90;;;;;;5051688;28;20500;-69
2022/03/11 06:04:50;;;;;;;30.63;14.93;;;2.30;99.90;;;;;;5025625;28;20041;-69
2022/03/11 06:07:16;;;;;;;35.25;15.25;;;2.20;99.90;;;;;;5053051;28;20400;-69
2022/03/11 06:09:41;;;;;;;32.47;15.18;;;2.20;99.90;;;;;;5052819;28;20426;-70
2022/03/11 06:12:08;;;;;;;34.30;15.05;;;2.20;99.90;;;;;;5051741;28;20384;-69
2022/03/11 06:14:33;;;;;;;33.25;15.10;;;2.20;99.90;;;;;;5058614;28;20036;-69
2022/03/11 06:16:59;;;;;;;31.50;15.38;;;2.20;99.90;;;;;;5051732;28;20092;-69
2022/03/11 06:19:26;;;;;;;32.38;14.82;;;2.10;99.90;;;;;;5085451;28;20041;-69
2022/03/11 06:21:52;;;;;;;31.60;14.45;;;2.10;99.90;;;;;;5020088;28;20045;-70
2022/03/11 06:24:18;;;;;;;33.95;15.38;;;2.10;99.90;;;;;;5068480;28;20098;-69
2022/03/11 06:26:44;;;;;;;35.20;14.05;;;2.10;99.90;;;;;;5036427;28;20036;-69
2022/03/11 06:29:10;;;;;;;33.10;14.63;;;2.10;99.90;;;;;;5068637;28;20047;-70
2022/03/11 06:31:37;;;;;;;34.15;14.95;;;2.20;99.90;;;;;;5018216;28;20079;-69
2022/03/11 06:34:03;;;;;;;30.33;14.20;;;2.30;99.90;;;;;;5030664;28;20073;-69
2022/03/11 06:36:29;;;;;;;34.50;14.73;;;2.30;99.90;;;;;;5036365;28;20074;-70
2022/03/11 06:38:56;;;;;;;30.67;14.38;;;2.30;99.90;;;;;;5052006;28;20049;-69
2022/03/11 06:41:22;;;;;;;34.15;14.93;;;2.30;99.90;;;;;;5066584;28;20508;-70
2022/03/11 06:43:49;;;;;;;32.92;14.25;;;2.40;99.90;;;;;;5070313;28;20044;-69
2022/03/11 06:46:16;;;;;;;32.50;14.85;;;2.50;99.90;;;;;;5040911;28;20355;-69
2022/03/11 06:48:42;;;;;;;29.88;12.60;;;2.50;99.90;;;;;;5051879;28;20124;-70
2022/03/11 06:51:08;;;;;;;25.92;13.07;;;2.60;99.90;;;;;;5036141;28;20517;-69
2022/03/11 06:53:34;;;;;;;29.83;13.77;;;2.60;99.90;;;;;;5069270;28;20080;-69
2022/03/11 06:56:00;;;;;;;31.38;14.18;;;2.70;99.90;;;;;;5026119;28;20504;-70
2022/03/11 06:58:29;;;;;;;31.42;14.13;;;3.00;99.90;;;;;;5041085;28;20048;-70
2022/03/11 07:00:55;;;;;;;28.40;13.90;;;2.80;99.90;;;;;;5068903;28;20110;-69
2022/03/11 07:03:21;;;;;;;30.25;14.15;;;2.80;99.90;;;;;;5035336;28;20045;-69
2022/03/11 07:05:47;;;;;;;30.30;14.38;;;2.90;99.90;;;;;;5033006;28;20056;-69
2022/03/11 07:08:14;;;;;;;32.15;12.13;;;2.90;99.90;;;;;;5049095;28;20123;-70
2022/03/11 07:10:40;;;;;;;32.03;14.70;;;3.90;99.90;;;;;;5035736;28;20103;-69
2022/03/11 07:13:06;;;;;;;31.85;14.73;;;3.10;99.90;;;;;;5060997;28;20055;-69
2022/03/11 07:15:32;;;;;;;30.20;13.82;;;3.20;99.90;;;;;;5071890;28;20123;-71
2022/03/11 07:17:58;;;;;;;31.70;13.70;;;3.20;99.90;;;;;;5048265;28;20045;-69
2022/03/11 07:20:24;;;;;;;29.15;13.80;;;3.30;99.90;;;;;;5051740;28;20094;-70
2022/03/11 07:22:50;;;;;;;30.08;14.40;;;3.40;99.90;;;;;;5068663;28;20196;-69
2022/03/11 07:25:16;;;;;;;27.92;13.77;;;3.80;99.90;;;;;;5054026;28;20135;-69
2022/03/11 07:27:43;;;;;;;28.00;13.63;;;3.60;99.90;;;;;;5059083;28;20033;-70
2022/03/11 07:30:11;;;;;;;31.70;14.10;;;3.60;99.90;;;;;;5045211;28;20381;-69
2022/03/11 07:32:38;;;;;;;29.15;12.93;;;3.60;99.90;;;;;;5068454;28;20052;-69
2022/03/11 07:35:05;;;;;;;29.52;13.38;;;3.70;99.90;;;;;;5065235;28;20464;-69
2022/03/11 07:37:30;;;;;;;30.10;13.95;;;3.80;99.90;;;;;;5041801;28;20044;-69
2022/03/11 07:39:56;;;;;;;30.02;14.55;;;3.90;99.90;;;;;;5039511;28;20041;-70
2022/03/11 07:42:22;;;;;;;31.35;14.77;;;4.00;99.90;;;;;;5034470;28;20045;-70
2022/03/11 07:44:48;;;;;;;28.92;13.98;;;4.10;99.90;;;;;;5067715;28;20041;-69
2022/03/11 07:47:14;;;;;;;28.30;13.43;;;4.10;99.90;;;;;;5034111;28;20040;-69
2022/03/11 07:49:43;;;;;;;28.95;14.18;;;4.20;99.90;;;;;;5032683;28;20048;-69
2022/03/11 07:52:15;;;;;;;30.60;14.65;;;4.30;99.90;;;;;;5051362;28;20449;-69
2022/03/11 07:54:42;;;;;;;33.40;14.50;;;4.40;99.90;;;;;;5067690;28;20083;-69
2022/03/11 07:57:09;;;;;;;29.30;13.93;;;4.50;99.90;;;;;;5034346;28;20045;-69
2022/03/11 07:59:36;;;;;;;33.78;14.02;;;4.60;99.90;;;;;;5055726;28;20047;-71
2022/03/11 08:02:02;;;;;;;30.20;14.32;;;4.70;99.90;;;;;;5068904;28;20043;-70
2022/03/11 08:04:32;;;;;;;27.20;13.07;;;4.70;99.90;;;;;;5015581;28;20037;-69
2022/03/11 08:07:06;;;;;;;30.33;13.93;;;4.70;99.90;;;;;;5047267;28;20123;-70
2022/03/11 08:09:34;;;;;;;28.63;13.02;;;4.90;99.90;;;;;;5043369;28;20060;-71
2022/03/11 08:11:59;;;;;;;28.55;14.27;;;5.00;99.90;;;;;;5034531;28;20101;-70
2022/03/11 08:14:25;;;;;;;30.73;13.73;;;5.00;99.90;;;;;;5038599;28;20123;-69
2022/03/11 08:16:51;;;;;;;30.23;14.52;;;5.10;99.90;;;;;;5070997;28;20040;-69
2022/03/11 08:19:17;;;;;;;30.42;14.13;;;5.20;99.90;;;;;;5034474;28;20048;-69
2022/03/11 08:21:43;;;;;;;28.15;13.25;;;5.30;99.90;;;;;;5065303;28;20119;-82
2022/03/11 08:24:09;;;;;;;28.33;13.93;;;5.40;99.90;;;;;;5045251;28;20048;-72
2022/03/11 08:26:35;;;;;;;29.42;14.85;;;5.50;99.90;;;;;;5067302;28;20051;-69
2022/03/11 08:29:01;;;;;;;28.73;13.13;;;5.60;99.90;;;;;;5048713;28;20116;-68
2022/03/11 08:31:27;;;;;;;27.60;14.63;;;5.70;99.90;;;;;;5034227;28;20044;-68
2022/03/11 08:33:53;;;;;;;27.58;12.85;;;5.40;99.90;;;;;;5050594;28;20048;-68
2022/03/11 08:36:19;;;;;;;37.22;15.40;;;5.80;99.90;;;;;;5050546;28;20120;-69
2022/03/11 08:38:45;;;;;;;28.75;14.20;;;5.90;99.90;;;;;;5032488;28;20041;-69
2022/03/11 08:41:11;;;;;;;32.08;14.52;;;6.00;99.90;;;;;;5013357;28;20124;-69
2022/03/11 08:43:38;;;;;;;29.70;14.23;;;6.00;99.90;;;;;;5053254;28;20050;-69
2022/03/11 08:46:11;;;;;;;32.63;14.98;;;6.10;99.90;;;;;;5046164;28;20346;-68
2022/03/11 08:48:37;;;;;;;27.55;14.68;;;6.20;99.90;;;;;;5036777;28;20049;-68
2022/03/11 08:51:04;;;;;;;29.67;14.07;;;6.30;99.90;;;;;;5034268;28;20041;-68
2022/03/11 08:53:30;;;;;;;30.75;14.77;;;6.40;99.90;;;;;;5053790;28;20049;-69
2022/03/11 08:55:56;;;;;;;31.08;15.50;;;6.60;99.90;;;;;;5052127;28;20054;-69
2022/03/11 08:58:22;;;;;;;28.63;14.38;;;6.60;99.90;;;;;;5041216;28;20552;-69
2022/03/11 09:00:48;;;;;;;28.48;14.25;;;6.70;99.90;;;;;;5028132;28;20045;-69
2022/03/11 09:03:14;;;;;;;30.20;14.00;;;6.80;99.90;;;;;;5071122;28;20048;-69
2022/03/11 09:05:40;;;;;;;28.30;13.90;;;6.90;99.90;;;;;;5056633;28;20041;-68
2022/03/11 09:08:09;;;;;;;30.75;14.23;;;6.90;99.90;;;;;;5025649;28;20036;-68
2022/03/11 09:10:35;;;;;;;28.83;14.57;;;7.00;96.20;;;;;;5034788;28;20057;-69
2022/03/11 09:13:02;;;;;;;30.00;14.63;;;6.90;92.00;;;;;;5054707;28;20132;-69
2022/03/11 09:15:28;;;;;;;27.23;13.68;;;6.90;90.10;;;;;;5036646;28;20047;-68
2022/03/11 09:17:54;;;;;;;28.63;13.98;;;6.90;94.80;;;;;;5069506;28;20045;-68
2022/03/11 09:20:20;;;;;;;29.05;14.95;;;7.00;88.90;;;;;;5014695;28;20053;-68
2022/03/11 09:22:46;;;;;;;30.15;13.07;;;7.10;89.80;;;;;;5037202;28;20052;-68
2022/03/11 09:25:13;;;;;;;29.85;13.52;;;7.10;86.80;;;;;;5018799;28;20045;-68
2022/03/11 09:27:39;;;;;;;30.90;14.55;;;7.30;90.20;;;;;;5037068;28;20048;-68
2022/03/11 09:30:07;;;;;;;27.63;14.07;;;7.20;85.70;;;;;;5056363;28;20048;-69
2022/03/11 09:32:34;;;;;;;27.25;14.88;;;7.20;83.70;;;;;;5064409;28;20052;-69
2022/03/11 09:35:00;;;;;;;24.98;13.80;;;7.40;87.80;;;;;;5053256;28;20045;-70
2022/03/11 09:37:28;;;;;;;26.27;14.18;;;7.60;86.30;;;;;;5054148;28;20056;-68
2022/03/11 09:39:55;;;;;;;26.85;13.88;;;7.70;85.80;;;;;;5052221;28;20098;-69
2022/03/11 09:42:21;;;;;;;25.27;13.68;;;7.90;88.20;;;;;;5037491;28;20053;-68
2022/03/11 09:44:55;;;;;;;30.00;13.60;;;7.90;81.70;;;;;;5056068;28;20171;-69
2022/03/11 09:47:22;;;;;;;25.30;13.43;;;7.90;79.10;;;;;;5060863;28;20044;-68
2022/03/11 09:49:49;;;;;;;26.40;13.77;;;7.80;74.60;;;;;;5051096;28;20384;-71
2022/03/11 09:52:16;;;;;;;23.73;12.10;;;7.80;77.20;;;;;;5035723;28;20091;-73
2022/03/11 09:54:45;;;;;;;24.08;13.98;;;8.00;76.30;;;;;;5068942;28;20041;-73
2022/03/11 09:57:23;;;;;;;27.77;13.50;;;8.00;75.50;;;;;;5033885;28;20470;-73
2022/03/11 09:59:50;;;;;;;24.88;13.10;;;8.00;74.60;;;;;;5035233;28;20068;-74
2022/03/11 10:02:18;;;;;;;26.30;14.07;;;8.20;77.80;;;;;;5052583;28;20045;-74
2022/03/11 10:04:49;;;;;;;26.98;13.20;;;8.30;74.30;;;;;;5069392;28;20397;-80
2022/03/11 10:07:29;;;;;;;26.42;14.02;;;8.30;74.70;;;;;;5070502;28;20170;-74
2022/03/11 10:09:56;;;;;;;21.10;12.02;;;8.40;73.10;;;;;;5073532;28;20163;-73
2022/03/11 10:12:28;;;;;;;24.52;14.20;;;8.50;72.50;;;;;;5059090;28;20049;-73
2022/03/11 10:14:58;;;;;;;;;;;8.60;72.50;;;;;;5044925;28;20033;-73
2022/03/11 10:17:25;;;;;;;22.45;13.18;;;8.70;71.90;;;;;;5042151;28;20003;-73
2022/03/11 10:20:05;;;;;;;27.67;13.80;;;8.50;70.40;;;;;;5043943;28;20469;-72
2022/03/11 10:22:34;;;;;;;27.10;13.98;;;8.60;71.60;;;;;;5060245;28;20037;-75
2022/03/11 10:25:16;;;;;;;28.73;13.70;;;8.80;73.90;;;;;;5048269;28;20730;-74
2022/03/11 10:27:56;;;;;;;24.85;12.90;;;8.80;72.00;;;;;;5043476;28;20055;-73
2022/03/11 10:30:23;;;;;;;22.40;13.13;;;9.00;72.10;;;;;;5069492;28;20720;-73
2022/03/11 10:32:53;;;;;;;27.33;12.90;;;9.00;68.90;;;;;;5036294;28;20078;-75
2022/03/11 10:35:19;;;;;;;22.77;12.00;;;9.10;70.90;;;;;;5052213;28;20052;-74
2022/03/11 10:37:56;;;;;;;25.30;13.38;;;9.20;68.00;;;;;;5025497;28;20041;-74
2022/03/11 10:40:22;;;;;;;24.60;12.77;;;9.20;66.50;;;;;;5034894;28;20509;-73
2022/03/11 10:42:48;;;;;;;23.40;13.15;;;9.20;66.60;;;;;;5051716;28;20047;-73
2022/03/11 10:45:14;;;;;;;30.17;13.20;;;9.40;68.40;;;;;;5051721;28;20175;-73
2022/03/11 10:47:41;;;;;;;24.40;13.07;;;9.50;68.70;;;;;;5024351;28;20034;-73
2022/03/11 10:50:08;;;;;;;22.85;12.18;;;9.70;67.10;;;;;;5036254;28;20383;-72
2022/03/11 10:52:35;;;;;;;21.98;12.85;;;9.60;64.90;;;;;;5069031;28;20056;-72
2022/03/11 10:55:16;;;;;;;21.45;12.27;;;9.80;66.20;;;;;;5052365;28;20048;-72
2022/03/11 10:57:42;;;;;;;26.80;12.43;;;9.80;63.80;;;;;;5051181;28;20412;-73
2022/03/11 11:00:24;;;;;;;24.85;12.93;;;9.70;63.60;;;;;;5052529;28;20037;-73
2022/03/11 11:02:55;;;;;;;21.90;12.45;;;9.80;63.30;;;;;;5048159;28;20104;-72
2022/03/11 11:05:21;;;;;;;21.98;12.52;;;9.80;61.70;;;;;;5050394;28;20041;-72
2022/03/11 11:07:48;;;;;;;23.73;11.80;;;9.90;61.80;;;;;;5039723;28;20052;-72
2022/03/11 11:10:17;;;;;;;21.33;12.15;;;10.10;63.40;;;;;;5035653;28;20051;-72
2022/03/11 11:12:46;;;;;;;24.45;12.80;;;10.00;60.60;;;;;;5050777;28;20052;-72
2022/03/11 11:15:13;;;;;;;22.05;12.00;;;9.90;59.60;;;;;;5052980;28;20056;-72
2022/03/11 11:17:43;;;;;;;25.75;12.68;;;10.10;62.00;;;;;;5043468;28;20500;-73
2022/03/11 11:20:12;;;;;;;19.80;11.95;;;10.10;61.30;;;;;;5034614;28;20060;-72
2022/03/11 11:22:40;;;;;;;20.17;11.52;;;10.30;61.50;;;;;;5053926;28;20124;-71
2022/03/11 11:25:07;;;;;;;23.60;12.23;;;10.30;60.10;;;;;;5034299;28;20128;-72
2022/03/11 11:27:34;;;;;;;22.40;12.35;;;10.40;59.60;;;;;;5015869;28;20134;-72
2022/03/11 11:30:01;;;;;;;20.63;11.82;;;10.40;59.60;;;;;;5047295;28;20064;-72
2022/03/11 11:32:27;;;;;;;22.55;12.55;;;10.50;59.30;;;;;;5051856;28;20087;-74
2022/03/11 11:34:53;;;;;;;22.15;11.57;;;10.60;60.40;;;;;;5022918;28;20045;-74
2022/03/11 11:37:39;;;;;;;21.15;12.43;;;10.80;60.70;;;;;;5067800;28;20045;-73
2022/03/11 11:40:23;;;;;;;20.60;11.43;;;10.80;59.90;;;;;;5048294;28;20488;-80
2022/03/11 11:43:10;;;;;;;21.50;11.80;;;11.00;58.40;;;;;;5047638;28;20055;-77
2022/03/11 11:45:54;;;;;;;20.20;11.43;;;11.10;57.90;;;;;;5051599;28;20090;-76
2022/03/11 11:48:32;;;;;;;19.17;11.70;;;11.10;59.30;;;;;;5046790;28;20420;-79
2022/03/11 11:51:03;;;;;;;22.52;11.77;;;11.10;57.50;;;;;;5048122;28;20069;-80
2022/03/11 11:53:33;;;;;;;19.67;10.55;;;11.10;56.10;;;;;;5035235;28;20554;-80
2022/03/11 11:56:00;;;;;;;21.52;12.50;;;11.30;57.60;;;;;;5068034;28;20198;-80
2022/03/11 11:58:30;;;;;;;19.85;11.52;;;11.30;56.90;;;;;;5025711;28;20045;-79
2022/03/11 12:00:57;;;;;;;19.33;11.00;;;11.30;55.80;;;;;;5050865;28;20076;-86
2022/03/11 12:03:52;;;;;;;22.02;12.23;;;11.30;55.70;;;;;;5068158;28;20088;-76
2022/03/11 12:06:57;;;;;;;20.35;11.23;;;11.60;55.90;;;;;;5015630;28;20049;-81
2022/03/11 12:09:50;;;;;;;19.73;11.98;;;12.00;56.10;;;;;;5022605;28;20049;-82
2022/03/11 12:12:19;;;;;;;20.80;11.52;;;12.00;52.80;;;;;;5036106;28;20461;-86
2022/03/11 12:15:01;;;;;;;19.35;11.45;;;12.20;55.10;;;;;;5052735;28;20041;-82
2022/03/11 12:17:46;;;;;;;16.85;11.05;;;12.70;56.50;;;;;;5057086;28;20127;-81
2022/03/11 12:20:39;;;;;;;19.13;11.90;;;12.80;52.40;;;;;;5071814;28;20049;-89
2022/03/11 12:23:12;;;;;;;17.88;11.07;;;12.60;51.20;;;;;;5033393;28;20079;-82
2022/03/11 12:25:50;;;;;;;21.25;11.18;;;12.90;53.10;;;;;;5036963;28;20101;-86
2022/03/11 12:28:32;;;;;;;23.33;12.38;;;12.70;53.70;;;;;;5030007;28;20045;-84
2022/03/11 12:31:03;;;;;;;16.92;10.73;;;12.90;53.20;;;;;;5051219;28;20045;-81
2022/03/11 12:33:41;;;;;;;19.98;11.68;;;13.10;51.40;;;;;;5039456;28;20044;-78
2022/03/11 12:36:19;;;;;;;20.40;11.73;;;13.20;50.20;;;;;;5029919;28;20378;-77
2022/03/11 12:38:48;;;;;;;15.32;9.73;;;13.00;49.80;;;;;;5038479;28;20083;-78